Woodville, Idaho
Current Conditions -  °F | °C
As of 2:53 PM on Tuesday 25 Nov 2014 (Local Time) from KIDA Reporting Station
Broken Clouds Broken Clouds  
Wind Chill: 36°   Ceiling: 1900
Heat Index: 44°   Visibility: 10mi
Dew Point: 37°   Wind: 20mph
Humidity: 76%   Direction: 210°SSW
Pressure: 30.07"   Gusts: NA
Location:  43.2015°N, 111.522°W
Report Text: KIDA 252153Z 21017KT 10SM BKN019 07/03 A3007 RMK AO2 PK WND 21028/2136 SLP191 T00670028
Loading
Personal Weather Stations






























Interactive Weather Map New forecast layout! Learn more

10-Day Weather Forecast

Advertisements
Track Severe Weather on mobile